createdAt,value
2023-03-22T00:00:11.538Z,78.74
2023-03-22T00:01:11.501Z,78.74
2023-03-22T00:02:11.532Z,78.94
2023-03-22T00:03:11.498Z,79.04
2023-03-22T00:04:11.540Z,78.84
2023-03-22T00:05:11.687Z,78.94
2023-03-22T00:06:11.687Z,79.04
2023-03-22T00:07:11.448Z,79.14
2023-03-22T00:08:11.427Z,79.18
2023-03-22T00:09:11.437Z,79.18
2023-03-22T00:10:11.429Z,79.18
2023-03-22T00:11:11.397Z,79.28
2023-03-22T00:12:11.377Z,79.39
2023-03-22T00:13:11.388Z,79.59
2023-03-22T00:14:11.368Z,79.90
2023-03-22T00:15:11.391Z,80.00
2023-03-22T00:16:11.402Z,80.00
2023-03-22T00:17:11.348Z,79.90
2023-03-22T00:18:11.308Z,79.90
2023-03-22T00:19:11.339Z,80.00
2023-03-22T00:20:11.307Z,80.10
2023-03-22T00:21:11.279Z,80.00
2023-03-22T00:22:11.282Z,80.10
2023-03-22T00:23:11.270Z,80.20
2023-03-22T00:24:11.289Z,80.30
2023-03-22T00:25:11.249Z,80.44
2023-03-22T00:26:11.221Z,80.41
2023-03-22T00:27:11.244Z,80.44
2023-03-22T00:28:11.211Z,80.55
2023-03-22T00:29:11.222Z,80.75
2023-03-22T00:30:11.187Z,80.75
2023-03-22T00:31:11.270Z,80.75
2023-03-22T00:32:11.166Z,80.55
2023-03-22T00:33:11.154Z,80.55
2023-03-22T00:34:11.173Z,80.55
2023-03-22T00:35:11.138Z,80.75
2023-03-22T00:36:11.139Z,80.85
2023-03-22T00:37:11.124Z,80.85
2023-03-22T00:38:11.106Z,81.05
2023-03-22T00:39:11.132Z,81.10
2023-03-22T00:40:11.076Z,81.10
2023-03-22T00:41:11.084Z,80.99
2023-03-22T00:42:11.062Z,81.10
2023-03-22T00:43:11.066Z,81.10
2023-03-22T00:44:11.048Z,81.20
2023-03-22T00:45:11.062Z,81.30
2023-03-22T00:46:11.042Z,81.30
2023-03-22T00:47:11.018Z,81.51
2023-03-22T00:48:11.073Z,81.51
2023-03-22T00:49:11.001Z,81.51
2023-03-22T00:50:10.984Z,81.40
2023-03-22T00:51:10.968Z,81.51
2023-03-22T00:52:10.959Z,81.40
2023-03-22T00:53:10.958Z,81.40
2023-03-22T00:54:10.930Z,81.51
2023-03-22T00:55:10.919Z,81.51
2023-03-22T00:56:10.907Z,81.51
2023-03-22T00:57:10.920Z,81.51
2023-03-22T00:58:10.879Z,81.51
2023-03-22T00:59:10.887Z,81.40
2023-03-22T01:00:10.860Z,81.51
2023-03-22T01:01:10.923Z,81.60
2023-03-22T01:02:10.840Z,81.60
2023-03-22T01:03:10.853Z,81.71
2023-03-22T01:04:10.833Z,81.81
2023-03-22T01:05:10.819Z,82.01
2023-03-22T01:06:10.799Z,82.12
2023-03-22T01:07:10.779Z,82.01
2023-03-22T01:08:10.785Z,82.01
2023-03-22T01:09:10.789Z,82.01
2023-03-22T01:10:10.760Z,82.01
2023-03-22T01:11:10.740Z,82.26
2023-03-22T01:12:10.734Z,82.15
2023-03-22T01:13:10.712Z,81.95
2023-03-22T01:14:10.738Z,81.95
2023-03-22T01:15:10.699Z,82.15
2023-03-22T01:16:10.771Z,82.26
2023-03-22T01:17:10.710Z,82.36
2023-03-22T01:18:10.662Z,82.67
2023-03-22T01:19:10.678Z,82.67
2023-03-22T01:20:10.646Z,82.87
2023-03-22T01:21:10.656Z,82.87
2023-03-22T01:22:10.649Z,82.97
2023-03-22T01:23:11.014Z,82.97
2023-03-22T01:24:10.599Z,82.87
2023-03-22T01:25:10.598Z,82.87
2023-03-22T01:26:10.568Z,82.97
2023-03-22T01:27:10.592Z,82.97
2023-03-22T01:28:10.618Z,82.87
2023-03-22T01:29:10.541Z,83.01
2023-03-22T01:30:10.541Z,82.91
2023-03-22T01:31:10.534Z,82.91
2023-03-22T01:32:10.541Z,83.01
2023-03-22T01:33:10.489Z,83.22
2023-03-22T01:34:10.523Z,83.22
2023-03-22T01:35:10.485Z,83.42
2023-03-22T01:36:10.461Z,83.42
2023-03-22T01:37:10.481Z,83.62
2023-03-22T01:38:10.461Z,83.73
2023-03-22T01:39:10.448Z,83.73
2023-03-22T01:40:10.433Z,83.83
2023-03-22T01:41:10.445Z,83.93
2023-03-22T01:42:10.417Z,83.93
2023-03-22T01:43:10.405Z,84.07
2023-03-22T01:44:10.404Z,84.17
2023-03-22T01:45:10.372Z,84.17
2023-03-22T01:46:10.386Z,84.38
2023-03-22T01:47:10.344Z,84.38
2023-03-22T01:48:10.475Z,84.28
2023-03-22T01:49:10.374Z,84.38
2023-03-22T01:50:10.329Z,84.69
2023-03-22T01:51:10.358Z,84.79
2023-03-22T01:52:10.315Z,84.69
2023-03-22T01:53:10.279Z,84.69
2023-03-22T01:54:10.302Z,84.69
2023-03-22T01:55:10.279Z,84.79
2023-03-22T01:56:10.260Z,84.69
2023-03-22T01:57:10.249Z,84.58
2023-03-22T01:58:10.239Z,84.69
2023-03-22T01:59:10.229Z,84.83
2023-03-22T02:00:10.249Z,84.93
2023-03-22T02:01:10.275Z,85.03
2023-03-22T02:02:10.209Z,85.03
2023-03-22T02:03:10.201Z,85.44
2023-03-22T02:04:10.201Z,85.64
2023-03-22T02:05:10.160Z,85.34
2023-03-22T02:06:10.150Z,85.34
2023-03-22T02:07:10.132Z,85.24
2023-03-22T02:08:10.161Z,85.24
2023-03-22T02:09:10.122Z,85.44
2023-03-22T02:10:10.132Z,85.44
2023-03-22T02:11:10.115Z,85.44
2023-03-22T02:12:10.099Z,85.38
2023-03-22T02:13:10.086Z,85.28
2023-03-22T02:14:10.084Z,85.17
2023-03-22T02:15:10.050Z,85.07
2023-03-22T02:16:10.072Z,85.17
2023-03-22T02:17:10.042Z,85.28
2023-03-22T02:18:10.032Z,85.28
2023-03-22T02:19:10.002Z,85.28
2023-03-22T02:20:10.034Z,85.38
2023-03-22T02:21:09.984Z,85.38
2023-03-22T02:22:10.006Z,85.38
2023-03-22T02:23:09.974Z,85.72
2023-03-22T02:24:09.965Z,86.04
2023-03-22T02:25:09.935Z,86.14
2023-03-22T02:26:09.942Z,86.04
2023-03-22T02:27:09.914Z,85.93
2023-03-22T02:28:09.925Z,86.04
2023-03-22T02:29:09.894Z,86.44
2023-03-22T02:30:09.905Z,86.44
2023-03-22T02:31:09.931Z,86.34
2023-03-22T02:32:09.885Z,86.34
2023-03-22T02:33:09.854Z,86.55
2023-03-22T02:34:09.878Z,86.55
2023-03-22T02:35:09.853Z,86.55
2023-03-22T02:36:09.825Z,86.44
2023-03-22T02:37:09.814Z,86.44
2023-03-22T02:38:10.223Z,86.44
2023-03-22T02:39:09.796Z,86.34
2023-03-22T02:40:09.796Z,86.14
2023-03-22T02:41:09.778Z,86.28
2023-03-22T02:42:09.771Z,86.38
2023-03-22T02:43:09.776Z,86.48
2023-03-22T02:44:09.736Z,86.58
2023-03-22T02:45:09.734Z,86.90
2023-03-22T02:46:09.754Z,86.90
2023-03-22T02:47:09.721Z,87.10
2023-03-22T02:48:09.733Z,87.10
2023-03-22T02:49:09.683Z,87.10
2023-03-22T02:50:09.656Z,87.20
2023-03-22T02:51:09.656Z,86.99
2023-03-22T02:52:09.667Z,86.90
2023-03-22T02:53:09.655Z,87.10
2023-03-22T02:54:09.633Z,87.30
2023-03-22T02:55:09.629Z,87.41
2023-03-22T02:56:09.596Z,87.41
2023-03-22T02:57:09.589Z,87.10
2023-03-22T02:58:09.605Z,86.90
2023-03-22T02:59:09.590Z,87.14
2023-03-22T03:00:09.558Z,87.24
2023-03-22T03:01:09.614Z,87.24
2023-03-22T03:02:09.586Z,87.14
2023-03-22T03:03:09.589Z,87.24
2023-03-22T03:04:09.522Z,87.24
2023-03-22T03:05:09.537Z,87.14
2023-03-22T03:06:09.518Z,87.14
2023-03-22T03:07:09.499Z,87.34
2023-03-22T03:08:09.498Z,87.55
2023-03-22T03:09:09.477Z,87.65
2023-03-22T03:10:09.461Z,87.65
2023-03-22T03:11:09.476Z,87.76
2023-03-22T03:12:09.428Z,87.90
2023-03-22T03:13:09.428Z,87.96
2023-03-22T03:14:09.439Z,88.06
2023-03-22T03:15:09.411Z,88.17
2023-03-22T03:16:09.432Z,88.27
2023-03-22T03:17:09.379Z,88.27
2023-03-22T03:18:09.376Z,88.27
2023-03-22T03:19:09.350Z,88.27
2023-03-22T03:20:09.359Z,88.31
2023-03-22T03:21:09.371Z,88.37
2023-03-22T03:22:09.320Z,88.41
2023-03-22T03:23:09.313Z,88.31
2023-03-22T03:24:09.301Z,88.41
2023-03-22T03:25:09.301Z,88.41
2023-03-22T03:26:09.319Z,88.31
2023-03-22T03:27:09.282Z,88.41
2023-03-22T03:28:09.268Z,88.31
2023-03-22T03:29:09.272Z,88.21
2023-03-22T03:30:09.249Z,88.31
2023-03-22T03:31:09.237Z,88.51
2023-03-22T03:32:09.242Z,88.72
2023-03-22T03:33:09.233Z,89.03
2023-03-22T03:34:09.213Z,89.23
2023-03-22T03:35:09.183Z,89.23
2023-03-22T03:36:09.184Z,89.23
2023-03-22T03:37:09.190Z,89.23
2023-03-22T03:38:09.144Z,89.23
2023-03-22T03:39:09.147Z,89.13
2023-03-22T03:40:09.130Z,88.92
2023-03-22T03:41:09.116Z,88.82
2023-03-22T03:42:09.115Z,88.72
2023-03-22T03:43:09.148Z,88.51
2023-03-22T03:44:09.084Z,88.66
2023-03-22T03:45:09.074Z,88.96
2023-03-22T03:46:09.140Z,89.17
2023-03-22T03:47:09.055Z,89.27
2023-03-22T03:48:09.138Z,89.17
2023-03-22T03:49:09.046Z,89.27
2023-03-22T03:50:09.018Z,89.27
2023-03-22T03:51:09.055Z,88.86
2023-03-22T03:52:09.016Z,88.96
2023-03-22T03:53:09.006Z,89.07
2023-03-22T03:54:08.988Z,88.86
2023-03-22T03:55:08.970Z,89.07
2023-03-22T03:56:08.969Z,89.27
2023-03-22T03:57:08.960Z,89.27
2023-03-22T03:58:08.948Z,89.37
2023-03-22T03:59:08.949Z,89.27
2023-03-22T04:00:08.919Z,89.37
2023-03-22T04:01:08.920Z,89.27
2023-03-22T04:02:08.991Z,89.17
2023-03-22T04:03:08.899Z,88.96
2023-03-22T04:04:08.908Z,88.86
2023-03-22T04:05:08.872Z,88.86
2023-03-22T04:06:08.860Z,89.07
2023-03-22T04:07:08.859Z,89.07
2023-03-22T04:08:08.845Z,89.07
2023-03-22T04:09:08.818Z,89.17
2023-03-22T04:10:08.816Z,89.17
2023-03-22T04:11:08.816Z,89.27
2023-03-22T04:12:08.813Z,89.37
2023-03-22T04:13:08.770Z,89.58
2023-03-22T04:14:08.782Z,89.69
2023-03-22T04:15:08.758Z,89.48
2023-03-22T04:16:08.754Z,89.58
2023-03-22T04:17:08.772Z,89.78
2023-03-22T04:18:08.734Z,89.99
2023-03-22T04:19:08.726Z,90.20
2023-03-22T04:20:08.741Z,90.44
2023-03-22T04:21:08.694Z,90.75
2023-03-22T04:22:08.693Z,90.75
2023-03-22T04:23:08.673Z,90.75
2023-03-22T04:24:08.658Z,90.85
2023-03-22T04:25:08.661Z,90.95
2023-03-22T04:26:08.656Z,90.95
2023-03-22T04:27:08.656Z,90.95
2023-03-22T04:28:08.613Z,90.85
2023-03-22T04:29:08.615Z,90.85
2023-03-22T04:30:08.593Z,90.85
2023-03-22T04:31:08.643Z,90.75
2023-03-22T04:32:08.604Z,90.75
2023-03-22T04:33:08.572Z,90.55
2023-03-22T04:34:08.545Z,90.55
2023-03-22T04:35:08.544Z,90.55
2023-03-22T04:36:08.521Z,90.55
2023-03-22T04:37:08.585Z,90.65
2023-03-22T04:38:08.528Z,90.75
2023-03-22T04:39:08.504Z,90.75
2023-03-22T04:40:08.480Z,90.75
2023-03-22T04:41:09.192Z,90.95
2023-03-22T04:42:08.469Z,91.37
2023-03-22T04:43:08.464Z,91.57
2023-03-22T04:44:08.471Z,91.37
2023-03-22T04:45:08.444Z,91.37
2023-03-22T04:46:08.442Z,91.37
2023-03-22T04:47:08.416Z,91.37
2023-03-22T04:48:08.399Z,91.37
2023-03-22T04:49:08.398Z,91.27
2023-03-22T04:50:08.404Z,91.27
2023-03-22T04:51:08.361Z,91.27
2023-03-22T04:52:08.351Z,91.27
2023-03-22T04:53:08.360Z,91.37
2023-03-22T04:54:08.338Z,91.27
2023-03-22T04:55:08.349Z,91.27
2023-03-22T04:56:08.316Z,91.20
2023-03-22T04:57:08.296Z,91.20
2023-03-22T04:58:08.316Z,91.31
2023-03-22T04:59:08.285Z,91.20
2023-03-22T05:00:08.261Z,91.20
2023-03-22T05:01:08.281Z,91.20
2023-03-22T05:02:08.259Z,91.31
2023-03-22T05:03:08.290Z,91.31
2023-03-22T05:04:08.227Z,91.31
2023-03-22T05:05:08.229Z,91.31
2023-03-22T05:06:08.226Z,91.41
2023-03-22T05:07:08.205Z,91.61
2023-03-22T05:08:08.174Z,91.72
2023-03-22T05:09:08.203Z,91.82
2023-03-22T05:10:08.234Z,91.82
2023-03-22T05:11:08.151Z,91.82
2023-03-22T05:12:08.146Z,91.41
2023-03-22T05:13:08.147Z,91.31
2023-03-22T05:14:08.151Z,91.00
2023-03-22T05:15:08.116Z,90.59
2023-03-22T05:16:08.168Z,90.48
2023-03-22T05:17:08.124Z,90.48
2023-03-22T05:18:08.068Z,90.48
2023-03-22T05:19:08.049Z,90.38
2023-03-22T05:20:08.059Z,90.38
2023-03-22T05:21:08.064Z,90.28
2023-03-22T05:22:08.038Z,90.18
2023-03-22T05:23:08.017Z,90.38
2023-03-22T05:24:08.014Z,90.48
2023-03-22T05:25:08.012Z,90.48
2023-03-22T05:26:07.990Z,90.48
2023-03-22T05:27:07.998Z,90.48
2023-03-22T05:28:07.969Z,90.38
2023-03-22T05:29:07.956Z,90.38
2023-03-22T05:30:07.941Z,90.38
2023-03-22T05:31:07.974Z,90.38
2023-03-22T05:32:07.964Z,90.38
2023-03-22T05:33:07.931Z,90.28
2023-03-22T05:34:07.926Z,90.38
2023-03-22T05:35:07.913Z,90.48
2023-03-22T05:36:07.901Z,90.59
2023-03-22T05:37:07.878Z,90.48
2023-03-22T05:38:07.901Z,90.18
2023-03-22T05:39:07.843Z,90.18
2023-03-22T05:40:07.856Z,90.08
2023-03-22T05:41:07.835Z,90.08
2023-03-22T05:42:07.832Z,89.87
2023-03-22T05:43:07.824Z,89.87
2023-03-22T05:44:07.825Z,89.97
2023-03-22T05:45:07.776Z,89.87
2023-03-22T05:46:07.790Z,89.66
2023-03-22T05:47:07.790Z,89.46
2023-03-22T05:48:07.792Z,89.46
2023-03-22T05:49:07.737Z,89.46
2023-03-22T05:50:07.764Z,89.56
2023-03-22T05:51:07.743Z,89.56
2023-03-22T05:52:07.712Z,89.56
2023-03-22T05:53:07.710Z,89.66
2023-03-22T05:54:07.721Z,89.56
2023-03-22T05:55:07.692Z,89.25
2023-03-22T05:56:07.670Z,89.15
2023-03-22T05:57:07.672Z,89.15
2023-03-22T05:58:07.650Z,89.15
2023-03-22T05:59:07.630Z,89.04
2023-03-22T06:00:07.634Z,88.84
2023-03-22T06:01:07.640Z,88.84
2023-03-22T06:02:07.646Z,88.84
2023-03-22T06:03:07.610Z,88.64
2023-03-22T06:04:07.591Z,88.43
2023-03-22T06:05:07.581Z,88.29
2023-03-22T06:06:07.589Z,88.23
2023-03-22T06:07:07.562Z,88.12
2023-03-22T06:08:07.552Z,88.23
2023-03-22T06:09:16.906Z,88.23
2023-03-22T06:10:08.537Z,88.23
2023-03-22T06:11:07.760Z,88.33
2023-03-22T06:12:07.516Z,88.33
2023-03-22T06:13:08.471Z,88.23
2023-03-22T06:14:07.492Z,88.33
2023-03-22T06:15:07.573Z,88.43
2023-03-22T06:16:07.506Z,88.29
2023-03-22T06:17:07.452Z,88.23
2023-03-22T06:18:07.445Z,88.23
2023-03-22T06:19:07.445Z,88.33
2023-03-22T06:20:07.415Z,88.23
2023-03-22T06:21:07.404Z,88.23
2023-03-22T06:22:07.438Z,88.33
2023-03-22T06:23:07.376Z,88.33
2023-03-22T06:24:07.376Z,88.43
2023-03-22T06:25:07.366Z,88.43
2023-03-22T06:26:07.456Z,88.33
2023-03-22T06:27:07.367Z,88.29
2023-03-22T06:28:08.756Z,88.43
2023-03-22T06:29:07.314Z,88.39
2023-03-22T06:30:07.314Z,88.49
2023-03-22T06:31:07.508Z,88.49
2023-03-22T06:32:07.291Z,88.49
2023-03-22T06:33:07.272Z,88.39
2023-03-22T06:34:07.262Z,88.39
2023-03-22T06:35:07.270Z,88.39
2023-03-22T06:36:07.231Z,88.39
2023-03-22T06:37:07.249Z,88.29
2023-03-22T06:38:07.243Z,88.29
2023-03-22T06:39:07.211Z,88.39
2023-03-22T06:40:07.269Z,88.29
2023-03-22T06:41:07.294Z,88.29
2023-03-22T06:42:07.309Z,88.29
2023-03-22T06:43:07.668Z,88.29
2023-03-22T06:44:07.153Z,88.49
2023-03-22T06:45:07.138Z,88.59
2023-03-22T06:46:07.172Z,88.80
2023-03-22T06:47:07.109Z,88.80
2023-03-22T06:48:07.189Z,88.86
2023-03-22T06:49:07.097Z,88.86
2023-03-22T06:50:07.079Z,89.17
2023-03-22T06:51:07.092Z,89.07
2023-03-22T06:52:07.069Z,89.27
2023-03-22T06:53:07.355Z,89.48
2023-03-22T06:54:07.732Z,89.48
2023-03-22T06:55:07.047Z,89.69
2023-03-22T06:56:07.028Z,89.89
2023-03-22T06:57:07.024Z,90.40
2023-03-22T06:58:07.778Z,90.30
2023-03-22T06:59:07.001Z,90.16
2023-03-22T07:00:07.013Z,89.95
2023-03-22T07:01:07.031Z,89.64
2023-03-22T07:02:06.969Z,89.43
2023-03-22T07:03:06.961Z,89.23
2023-03-22T07:04:06.954Z,89.03
2023-03-22T07:05:06.929Z,89.03
2023-03-22T07:06:06.939Z,88.41
2023-03-22T07:07:06.910Z,87.65
2023-03-22T07:08:06.894Z,87.55
2023-03-22T07:09:06.934Z,87.14
2023-03-22T07:10:06.883Z,86.79
2023-03-22T07:11:06.860Z,86.90
2023-03-22T07:12:06.862Z,87.10
2023-03-22T07:13:06.832Z,87.20
2023-03-22T07:14:06.843Z,87.16
2023-03-22T07:15:06.860Z,87.16
2023-03-22T07:16:06.850Z,87.06
2023-03-22T07:17:06.813Z,86.85
2023-03-22T07:18:06.794Z,86.85
2023-03-22T07:19:06.774Z,87.37
2023-03-22T07:20:06.754Z,87.67
2023-03-22T07:21:06.764Z,87.73
2023-03-22T07:22:06.741Z,87.63
2023-03-22T07:23:06.736Z,87.63
2023-03-22T07:24:06.756Z,87.43
2023-03-22T07:25:06.699Z,87.22
2023-03-22T07:26:06.696Z,87.02
2023-03-22T07:27:06.695Z,86.91
2023-03-22T07:28:06.664Z,86.81
2023-03-22T07:29:06.685Z,86.67
2023-03-22T07:30:09.029Z,86.98
2023-03-22T07:31:06.664Z,86.57
2023-03-22T07:32:06.669Z,86.46
2023-03-22T07:33:06.620Z,86.26
2023-03-22T07:34:06.648Z,86.57
2023-03-22T07:35:06.593Z,86.43
2023-03-22T07:36:06.594Z,85.71
2023-03-22T07:37:06.589Z,85.30
2023-03-22T07:38:06.610Z,85.30
2023-03-22T07:39:06.567Z,84.28
2023-03-22T07:40:06.540Z,82.03
2023-03-22T07:41:06.540Z,82.81
2023-03-22T07:42:06.864Z,82.29
2023-03-22T07:43:06.501Z,79.13
2023-03-22T07:44:17.364Z,77.35
2023-03-22T07:45:07.542Z,77.76
2023-03-22T07:46:06.605Z,77.52
2023-03-22T07:47:06.463Z,76.70
2023-03-22T07:48:06.489Z,76.09
2023-03-22T07:49:06.455Z,75.54
2023-03-22T07:50:06.474Z,74.42
2023-03-22T07:51:06.448Z,72.65
2023-03-22T07:52:06.425Z,72.55
2023-03-22T07:53:06.418Z,72.65
2023-03-22T07:54:07.752Z,72.72
2023-03-22T07:55:06.403Z,73.43
2023-03-22T07:56:07.398Z,73.33
2023-03-22T07:57:06.372Z,73.13
2023-03-22T07:58:06.372Z,71.97
2023-03-22T07:59:06.448Z,72.28
2023-03-22T08:00:06.338Z,72.48
2023-03-22T08:01:06.318Z,71.33
2023-03-22T08:02:06.358Z,70.82
2023-03-22T08:03:06.358Z,71.12
2023-03-22T08:04:06.301Z,70.41
2023-03-22T08:05:06.270Z,69.97
2023-03-22T08:06:07.223Z,70.17
2023-03-22T08:07:06.310Z,69.56
2023-03-22T08:08:06.264Z,70.28
2023-03-22T08:09:06.250Z,69.87
2023-03-22T08:10:06.231Z,70.17
2023-03-22T08:11:06.221Z,69.84
2023-03-22T08:12:06.218Z,69.84
2023-03-22T08:13:06.199Z,69.32
2023-03-22T08:14:06.199Z,69.73
2023-03-22T08:15:06.170Z,69.63
2023-03-22T08:16:06.196Z,69.43
2023-03-22T08:17:06.156Z,69.43
2023-03-22T08:18:06.157Z,69.12
2023-03-22T08:19:06.148Z,69.53
2023-03-22T08:20:06.374Z,70.10
2023-03-22T08:21:06.110Z,69.29
2023-03-22T08:22:06.093Z,69.49
2023-03-22T08:23:06.094Z,69.80
2023-03-22T08:24:06.073Z,69.29
2023-03-22T08:25:06.082Z,69.90
2023-03-22T08:26:06.058Z,70.10
2023-03-22T08:27:06.073Z,69.60
2023-03-22T08:28:06.054Z,69.40
2023-03-22T08:29:07.016Z,69.36
2023-03-22T08:30:06.043Z,69.06
2023-03-22T08:31:06.083Z,68.75
2023-03-22T08:32:06.084Z,69.26
2023-03-22T08:33:06.693Z,68.75
2023-03-22T08:34:05.993Z,68.65
2023-03-22T08:35:06.991Z,68.75
2023-03-22T08:36:05.978Z,69.02
2023-03-22T08:37:06.073Z,68.82
2023-03-22T08:38:05.933Z,68.62
2023-03-22T08:39:06.661Z,68.92
2023-03-22T08:40:05.973Z,68.08
2023-03-22T08:41:06.664Z,68.08
2023-03-22T08:42:05.884Z,67.77
2023-03-22T08:43:05.897Z,67.27
2023-03-22T08:44:05.888Z,67.06
2023-03-22T08:45:06.716Z,67.36
2023-03-22T08:46:05.879Z,67.97
2023-03-22T08:47:05.839Z,67.64
2023-03-22T08:48:05.846Z,67.24
2023-03-22T08:49:05.792Z,67.44
2023-03-22T08:50:05.813Z,67.13
2023-03-22T08:51:05.805Z,67.03
2023-03-22T08:52:05.770Z,66.63
2023-03-22T08:53:05.782Z,67.03
2023-03-22T08:54:05.764Z,66.72
2023-03-22T08:55:05.865Z,66.63
2023-03-22T08:56:05.821Z,67.03
2023-03-22T08:57:05.735Z,67.24
2023-03-22T08:58:05.714Z,67.30
2023-03-22T08:59:05.685Z,66.49
2023-03-22T09:00:05.696Z,66.39
2023-03-22T09:01:05.816Z,66.49
2023-03-22T09:02:05.737Z,66.69
2023-03-22T09:03:05.638Z,65.58
2023-03-22T09:04:05.678Z,66.08
2023-03-22T09:05:05.626Z,65.88
2023-03-22T09:06:05.640Z,66.60
2023-03-22T09:07:05.607Z,66.80
2023-03-22T09:08:06.650Z,67.00
2023-03-22T09:09:05.586Z,66.80
2023-03-22T09:10:05.575Z,66.49
2023-03-22T09:11:05.566Z,66.49
2023-03-22T09:12:05.580Z,66.29
2023-03-22T09:13:05.542Z,67.10
2023-03-22T09:14:05.544Z,67.07
2023-03-22T09:15:05.538Z,66.05
2023-03-22T09:16:05.566Z,65.55
2023-03-22T09:17:05.488Z,65.34
2023-03-22T09:18:05.498Z,65.45
2023-03-22T09:19:05.467Z,65.45
2023-03-22T09:20:12.565Z,65.55
2023-03-22T09:21:06.469Z,65.55
2023-03-22T09:22:05.457Z,65.42
2023-03-22T09:23:05.504Z,65.42
2023-03-22T09:24:05.418Z,65.01
2023-03-22T09:25:05.397Z,64.81
2023-03-22T09:26:05.417Z,64.91
2023-03-22T09:27:05.403Z,64.91
2023-03-22T09:28:05.459Z,64.37
2023-03-22T09:29:05.367Z,64.07
2023-03-22T09:30:05.367Z,63.66
2023-03-22T09:31:05.428Z,63.46
2023-03-22T09:32:05.338Z,63.66
2023-03-22T09:33:05.342Z,64.27
2023-03-22T09:34:05.320Z,64.67
2023-03-22T09:35:05.476Z,64.78
2023-03-22T09:36:06.171Z,64.47
2023-03-22T09:37:05.698Z,64.58
2023-03-22T09:38:05.275Z,64.17
2023-03-22T09:39:05.263Z,64.27
2023-03-22T09:40:05.230Z,63.76
2023-03-22T09:41:05.228Z,63.53
2023-03-22T09:42:05.828Z,63.93
2023-03-22T09:43:05.391Z,63.83
2023-03-22T09:44:06.909Z,63.73
2023-03-22T09:45:05.200Z,63.63
2023-03-22T09:46:06.098Z,63.83
2023-03-22T09:47:05.577Z,64.24
2023-03-22T09:48:05.653Z,64.54
2023-03-22T09:49:05.716Z,64.31
2023-03-22T09:50:05.687Z,63.50
2023-03-22T09:51:05.303Z,62.99
2023-03-22T09:52:06.971Z,62.69
2023-03-22T09:53:05.119Z,62.59
2023-03-22T09:54:07.888Z,62.46
2023-03-22T09:55:05.356Z,62.66
2023-03-22T09:56:05.843Z,62.66
2023-03-22T09:57:05.391Z,62.15
2023-03-22T09:58:05.164Z,62.05
2023-03-22T09:59:05.053Z,61.52
2023-03-22T10:00:05.032Z,61.62
2023-03-22T10:01:05.184Z,61.92
2023-03-22T10:02:05.281Z,62.73
2023-03-22T10:03:04.996Z,62.10
2023-03-22T10:04:05.017Z,61.69
2023-03-22T10:05:04.967Z,61.29
2023-03-22T10:06:04.974Z,60.98
2023-03-22T10:07:04.979Z,61.08
2023-03-22T10:08:04.932Z,60.75
2023-03-22T10:09:04.934Z,61.16
2023-03-22T10:10:04.922Z,61.25
2023-03-22T10:11:04.969Z,61.46
2023-03-22T10:12:04.926Z,61.87
2023-03-22T10:13:04.898Z,60.96
2023-03-22T10:14:04.983Z,60.55
2023-03-22T10:15:05.091Z,60.55
2023-03-22T10:16:04.867Z,60.65
2023-03-22T10:17:04.863Z,60.45
2023-03-22T10:18:04.843Z,59.84
2023-03-22T10:19:04.837Z,59.74
2023-03-22T10:20:04.857Z,60.17
2023-03-22T10:21:04.809Z,60.38
2023-03-22T10:22:04.797Z,60.48
2023-03-22T10:23:04.791Z,60.58
2023-03-22T10:24:04.933Z,60.68
2023-03-22T10:25:04.777Z,61.05
2023-03-22T10:26:04.789Z,60.85
2023-03-22T10:27:04.869Z,61.25
2023-03-22T10:28:04.747Z,60.96
2023-03-22T10:29:04.720Z,60.25
2023-03-22T10:30:04.701Z,60.05
2023-03-22T10:31:06.001Z,60.14
2023-03-22T10:32:05.086Z,59.84
2023-03-22T10:33:04.711Z,60.05
2023-03-22T10:34:04.661Z,60.32
2023-03-22T10:35:04.871Z,60.52
2023-03-22T10:36:04.693Z,60.93
2023-03-22T10:37:04.631Z,61.13
2023-03-22T10:38:04.623Z,59.69
2023-03-22T10:39:04.630Z,59.58
2023-03-22T10:40:04.591Z,59.58
2023-03-22T10:41:04.611Z,59.58
2023-03-22T10:42:04.578Z,59.99
2023-03-22T10:43:04.551Z,59.28
2023-03-22T10:44:04.859Z,59.89
2023-03-22T10:45:04.720Z,59.35
2023-03-22T10:46:04.534Z,59.56
2023-03-22T10:47:04.782Z,59.66
2023-03-22T10:48:04.524Z,59.42
2023-03-22T10:49:04.503Z,58.82
2023-03-22T10:50:04.829Z,58.59
2023-03-22T10:51:04.484Z,57.98
2023-03-22T10:52:04.469Z,58.29
2023-03-22T10:53:04.479Z,58.09
2023-03-22T10:54:04.440Z,57.35
2023-03-22T10:55:04.776Z,57.56
2023-03-22T10:56:04.430Z,57.05
2023-03-22T10:57:05.289Z,57.25
2023-03-22T10:58:04.401Z,57.45
2023-03-22T10:59:04.460Z,57.43
2023-03-22T11:00:04.411Z,57.43
2023-03-22T11:01:04.610Z,56.92
2023-03-22T11:02:04.552Z,56.32
2023-03-22T11:03:04.864Z,56.49
2023-03-22T11:04:04.663Z,56.90
2023-03-22T11:05:04.638Z,56.40
2023-03-22T11:06:04.313Z,56.29
2023-03-22T11:07:04.614Z,56.20
2023-03-22T11:08:04.357Z,56.57
2023-03-22T11:09:04.862Z,55.96
2023-03-22T11:10:04.676Z,55.76
2023-03-22T11:11:04.254Z,55.43
2023-03-22T11:12:04.245Z,55.23
2023-03-22T11:13:04.246Z,55.33
2023-03-22T11:14:04.214Z,55.43
2023-03-22T11:15:04.226Z,55.03
2023-03-22T11:16:04.206Z,55.43
2023-03-22T11:17:04.185Z,55.83
2023-03-22T11:18:04.573Z,55.51
2023-03-22T11:19:04.336Z,55.41
2023-03-22T11:20:06.040Z,55.31
2023-03-22T11:21:04.578Z,55.91
2023-03-22T11:22:04.135Z,55.61
2023-03-22T11:23:04.591Z,55.51
2023-03-22T11:24:04.360Z,55.38
2023-03-22T11:25:04.177Z,55.58
2023-03-22T11:26:04.141Z,55.58
2023-03-22T11:27:04.127Z,55.46
2023-03-22T11:28:04.077Z,55.46
2023-03-22T11:29:04.170Z,55.23
2023-03-22T11:30:04.047Z,54.53
2023-03-22T11:31:04.061Z,54.33
2023-03-22T11:32:04.504Z,54.60
2023-03-22T11:33:04.097Z,54.10
2023-03-22T11:34:04.208Z,54.30
2023-03-22T11:35:04.110Z,53.50
2023-03-22T11:36:04.304Z,52.80
2023-03-22T11:37:03.989Z,53.30
2023-03-22T11:38:03.950Z,52.59
2023-03-22T11:39:03.965Z,52.29
2023-03-22T11:40:03.951Z,52.39
2023-03-22T11:41:03.938Z,52.62
2023-03-22T11:42:03.976Z,53.09
2023-03-22T11:43:03.913Z,53.09
2023-03-22T11:44:03.894Z,53.57
2023-03-22T11:45:03.906Z,53.25
2023-03-22T11:46:03.940Z,53.14
2023-03-22T11:47:03.891Z,51.82
2023-03-22T11:48:03.960Z,52.12
2023-03-22T11:49:03.920Z,51.64
2023-03-22T11:50:03.835Z,51.74
2023-03-22T11:51:03.881Z,51.54
2023-03-22T11:52:05.339Z,51.24
2023-03-22T11:53:03.807Z,50.31
2023-03-22T11:54:03.796Z,50.51
2023-03-22T11:55:03.776Z,50.62
2023-03-22T11:56:03.767Z,50.51
2023-03-22T11:57:03.799Z,50.01
2023-03-22T11:58:03.746Z,50.51
2023-03-22T11:59:03.747Z,50.39
2023-03-22T12:00:03.744Z,49.19
2023-03-22T12:01:03.715Z,49.08
2023-03-22T12:02:03.705Z,48.07
2023-03-22T12:03:03.846Z,50.96
2023-03-22T12:04:03.725Z,51.87
2023-03-22T12:05:03.702Z,52.67
2023-03-22T12:06:03.700Z,52.57
2023-03-22T12:07:03.659Z,51.67
2023-03-22T12:08:03.652Z,51.87
2023-03-22T12:09:03.625Z,51.94
2023-03-22T12:10:03.637Z,51.34
2023-03-22T12:11:03.627Z,51.12
2023-03-22T12:12:03.581Z,50.72
2023-03-22T12:13:03.591Z,50.89
2023-03-22T12:14:03.594Z,50.59
2023-03-22T12:15:03.608Z,50.59
2023-03-22T12:16:03.577Z,50.47
2023-03-22T12:17:03.552Z,49.87
2023-03-22T12:18:05.023Z,49.95
2023-03-22T12:19:03.554Z,49.82
2023-03-22T12:20:03.506Z,49.52
2023-03-22T12:21:03.514Z,48.70
2023-03-22T12:22:03.495Z,48.30
2023-03-22T12:23:03.489Z,47.60
2023-03-22T12:24:03.456Z,47.00
2023-03-22T12:25:03.470Z,47.50
2023-03-22T12:26:03.439Z,47.71
2023-03-22T12:27:03.449Z,47.60
2023-03-22T12:28:03.547Z,47.68
2023-03-22T12:29:03.528Z,46.86
2023-03-22T12:30:03.409Z,46.12
2023-03-22T12:31:03.452Z,45.50
2023-03-22T12:32:03.430Z,44.90
2023-03-22T12:33:03.397Z,44.60
2023-03-22T12:34:03.365Z,44.50
2023-03-22T12:35:16.782Z,44.08
2023-03-22T12:36:04.437Z,43.76
2023-03-22T12:37:03.350Z,43.05
2023-03-22T12:38:03.305Z,41.71
2023-03-22T12:39:03.352Z,41.93
2023-03-22T12:40:03.320Z,42.63
2023-03-22T12:41:03.272Z,42.13
2023-03-22T12:42:03.276Z,41.30
2023-03-22T12:43:03.264Z,40.20
2023-03-22T12:44:03.254Z,40.58
2023-03-22T12:45:05.606Z,40.19
2023-03-22T12:46:03.235Z,40.41
2023-03-22T12:47:03.275Z,40.30
2023-03-22T12:48:03.278Z,40.41
2023-03-22T12:49:03.280Z,40.01
2023-03-22T12:50:03.178Z,40.30
2023-03-22T12:51:03.189Z,40.82
2023-03-22T12:52:03.219Z,40.96